Terminal Aerodrome Forecast
Issued by NWS Shreveport, LA

Home | Current Version | Previous Version | Text Only | Print | Product List | Glossary On
Versions: 1 2 3 4 5 6 7 8 9 10 11 12 13 14
742
FTUS44 KSHV 092340
TAFSHV
TAF
KSHV 092340Z 1000/1024 32012G18KT P6SM SKC
     FM100200 33006KT P6SM SKC
     FM101200 VRB03KT P6SM SKC
     FM101600 19007KT P6SM SKC=

USA.gov is the U.S. government's official web portal to all federal, state and local government web resources and services.